createdAt,value
2022-09-04T00:00:46.373Z,31.95
2022-09-04T00:06:53.852Z,31.67
2022-09-04T00:12:59.319Z,31.20
2022-09-04T00:19:08.044Z,32.17
2022-09-04T00:25:14.681Z,30.90
2022-09-04T00:31:21.661Z,30.83
2022-09-04T00:37:28.073Z,30.65
2022-09-04T00:43:45.497Z,30.88
2022-09-04T00:49:58.982Z,32.47
2022-09-04T00:56:15.823Z,33.60
2022-09-04T01:02:24.960Z,33.10
2022-09-04T01:08:36.246Z,33.70
2022-09-04T01:14:44.368Z,32.85
2022-09-04T01:20:57.501Z,33.40
2022-09-04T01:27:05.430Z,32.83
2022-09-04T01:33:12.751Z,32.67
2022-09-04T01:39:16.159Z,31.55
2022-09-04T01:45:30.274Z,30.58
2022-09-04T01:51:39.315Z,31.38
2022-09-04T01:57:46.753Z,31.08
2022-09-04T02:03:54.220Z,31.08
2022-09-04T02:10:03.513Z,31.00
2022-09-04T02:16:10.422Z,28.52
2022-09-04T02:22:20.093Z,29.25
2022-09-04T02:28:27.518Z,31.23
2022-09-04T02:34:34.277Z,32.22
2022-09-04T02:40:44.569Z,32.38
2022-09-04T02:46:55.687Z,31.90
2022-09-04T02:53:08.350Z,30.50
2022-09-04T02:59:24.611Z,31.15
2022-09-04T03:05:30.404Z,31.90
2022-09-04T03:11:37.693Z,29.75
2022-09-04T03:17:47.691Z,31.65
2022-09-04T03:23:53.955Z,31.95
2022-09-04T03:30:01.344Z,30.35
2022-09-04T03:36:10.623Z,31.67
2022-09-04T03:42:22.994Z,32.75
2022-09-04T03:48:41.160Z,32.45
2022-09-04T03:55:02.305Z,33.13
2022-09-04T04:01:13.592Z,33.72
2022-09-04T04:07:25.451Z,34.78
2022-09-04T04:13:36.289Z,38.95
2022-09-04T04:19:47.437Z,38.90
2022-09-04T04:26:00.837Z,38.20
2022-09-04T04:32:13.749Z,36.20
2022-09-04T04:38:24.842Z,38.28
2022-09-04T04:44:53.445Z,38.70
2022-09-04T04:51:03.857Z,37.45
2022-09-04T04:57:14.850Z,36.08
2022-09-04T05:03:21.657Z,37.50
2022-09-04T05:09:31.723Z,36.33
2022-09-04T05:16:05.204Z,36.78
2022-09-04T05:22:11.104Z,31.52
2022-09-04T05:28:23.013Z,30.27
2022-09-04T05:34:35.134Z,29.85
2022-09-04T05:40:48.780Z,29.33
2022-09-04T05:46:58.544Z,30.48
2022-09-04T05:53:16.988Z,31.33
2022-09-04T05:59:35.181Z,32.95
2022-09-04T06:05:45.810Z,37.05
2022-09-04T06:12:06.788Z,37.85
2022-09-04T06:18:20.594Z,37.78
2022-09-04T06:24:31.606Z,36.67
2022-09-04T06:30:39.641Z,36.28
2022-09-04T06:36:57.875Z,36.78
2022-09-04T06:43:09.444Z,39.13
2022-09-04T06:49:16.065Z,39.75
2022-09-04T06:55:23.275Z,40.63
2022-09-04T07:01:34.110Z,39.20
2022-09-04T07:07:41.043Z,39.05
2022-09-04T07:14:04.396Z,38.33
2022-09-04T07:20:18.994Z,38.72
2022-09-04T07:26:27.174Z,38.05
2022-09-04T07:32:32.647Z,32.80
2022-09-04T07:38:40.203Z,32.45
2022-09-04T07:44:46.846Z,32.15
2022-09-04T07:51:03.539Z,29.85
2022-09-04T07:57:15.016Z,29.45
2022-09-04T08:03:24.865Z,27.02
2022-09-04T08:09:40.604Z,26.35
2022-09-04T08:15:54.361Z,25.35
2022-09-04T08:21:58.046Z,23.27
2022-09-04T08:28:06.227Z,17.30
2022-09-04T08:34:27.385Z,20.38
2022-09-04T08:40:47.215Z,19.08
2022-09-04T08:47:05.129Z,16.35
2022-09-04T08:53:26.565Z,15.27
2022-09-04T08:59:52.280Z,12.05
2022-09-04T09:06:13.709Z,12.02
2022-09-04T09:12:41.276Z,10.88
2022-09-04T09:18:57.201Z,9.32
2022-09-04T09:25:20.911Z,12.05
2022-09-04T09:31:39.302Z,10.00
2022-09-04T09:38:04.142Z,7.07
2022-09-04T09:44:23.415Z,7.03
2022-09-04T09:50:56.641Z,7.45
2022-09-04T09:57:18.947Z,6.15
2022-09-04T10:03:40.006Z,6.57
2022-09-04T10:10:02.247Z,5.95
2022-09-04T10:16:19.284Z,4.97
2022-09-04T10:22:41.279Z,5.00
2022-09-04T10:28:51.801Z,6.18
2022-09-04T10:35:07.772Z,6.30
2022-09-04T10:41:26.979Z,4.95
2022-09-04T10:47:45.115Z,3.90
2022-09-04T10:54:07.794Z,4.55
2022-09-04T11:00:13.985Z,4.57
2022-09-04T11:06:35.875Z,3.88
2022-09-04T11:12:53.205Z,4.47
2022-09-04T11:19:11.664Z,3.40
2022-09-04T11:25:37.531Z,4.28
2022-09-04T11:31:59.182Z,4.75
2022-09-04T11:38:18.491Z,4.38
2022-09-04T11:44:30.442Z,4.75
2022-09-04T11:51:01.564Z,3.70
2022-09-04T11:57:09.294Z,5.50
2022-09-04T12:03:20.870Z,5.38
2022-09-04T12:09:44.173Z,4.78
2022-09-04T12:15:56.554Z,6.72
2022-09-04T12:22:21.326Z,5.15
2022-09-04T12:28:46.973Z,4.60
2022-09-04T12:35:09.059Z,3.38
2022-09-04T12:41:17.120Z,3.63
2022-09-04T12:47:26.155Z,3.50
2022-09-04T12:53:52.587Z,2.92
2022-09-04T13:00:01.845Z,3.35
2022-09-04T13:06:12.500Z,3.33
2022-09-04T13:12:22.761Z,2.83
2022-09-04T13:18:34.953Z,2.28
2022-09-04T13:24:51.231Z,2.55
2022-09-04T13:31:00.114Z,1.85
2022-09-04T13:37:08.212Z,1.80
2022-09-04T13:43:29.474Z,2.50
2022-09-04T13:49:37.103Z,2.13
2022-09-04T13:55:43.541Z,1.98
2022-09-04T14:01:55.615Z,2.08
2022-09-04T14:08:02.894Z,1.80
2022-09-04T14:14:13.714Z,1.60
2022-09-04T14:20:22.227Z,1.65
2022-09-04T14:26:30.117Z,1.63
2022-09-04T14:32:39.773Z,1.80
2022-09-04T14:38:58.056Z,1.80
2022-09-04T14:45:12.524Z,1.60
2022-09-04T14:51:34.210Z,1.70
2022-09-04T14:57:41.430Z,1.60
2022-09-04T15:03:47.800Z,1.60
2022-09-04T15:09:54.721Z,1.60
2022-09-04T15:16:00.623Z,1.40
2022-09-04T15:22:07.097Z,1.73
2022-09-04T15:28:14.263Z,1.50
2022-09-04T15:34:21.623Z,1.40
2022-09-04T15:40:29.102Z,1.10
2022-09-04T15:46:44.049Z,1.27
2022-09-04T15:52:50.944Z,1.50
2022-09-04T15:59:01.581Z,1.58
2022-09-04T16:05:15.070Z,1.17
2022-09-04T16:11:24.370Z,1.08
2022-09-04T16:17:29.616Z,1.58
2022-09-04T16:23:36.020Z,1.55
2022-09-04T16:29:42.735Z,1.30
2022-09-04T16:35:46.486Z,1.30
2022-09-04T16:41:53.657Z,1.20
2022-09-04T16:48:01.895Z,1.38
2022-09-04T16:54:28.852Z,1.10
2022-09-04T17:00:48.693Z,1.40
2022-09-04T17:07:02.784Z,1.20
2022-09-04T17:13:12.736Z,1.30
2022-09-04T17:19:18.073Z,2.75
2022-09-04T17:29:12.274Z,1.10
2022-09-04T17:31:54.474Z,1.70
2022-09-04T17:40:57.004Z,1.20
2022-09-04T17:44:35.545Z,1.30
2022-09-04T17:50:48.065Z,1.30
2022-09-04T17:56:57.486Z,1.40
2022-09-04T18:03:03.535Z,1.27
2022-09-04T18:09:11.444Z,1.70
2022-09-04T18:15:32.817Z,1.90
2022-09-04T18:21:41.990Z,1.77
2022-09-04T18:28:09.673Z,1.95
2022-09-04T18:37:25.137Z,1.77
2022-09-04T18:42:56.227Z,4.50
2022-09-04T18:50:36.973Z,11.60
2022-09-04T18:53:43.490Z,2.72
2022-09-04T18:59:53.644Z,1.95
2022-09-04T19:06:13.587Z,2.80
2022-09-04T19:12:20.382Z,5.85
2022-09-04T19:18:30.272Z,7.30
2022-09-04T19:24:36.371Z,8.40
2022-09-04T19:30:48.638Z,11.40
2022-09-04T19:36:56.135Z,13.45
2022-09-04T19:46:16.658Z,17.98
2022-09-04T19:53:22.200Z,22.50
2022-09-04T19:56:22.422Z,23.00
2022-09-04T20:02:31.749Z,22.58
2022-09-04T20:08:38.222Z,25.58
2022-09-04T20:14:44.157Z,23.88
2022-09-04T20:20:52.468Z,23.92
2022-09-04T20:27:00.698Z,23.98
2022-09-04T20:33:07.575Z,24.60
2022-09-04T20:39:13.754Z,23.83
2022-09-04T20:51:13.786Z,24.98
2022-09-04T20:53:05.608Z,24.25
2022-09-04T21:03:09.827Z,22.80
2022-09-04T21:04:52.315Z,20.75
2022-09-04T21:10:58.358Z,22.15
2022-09-04T21:17:33.738Z,20.48
2022-09-04T21:24:02.892Z,21.15
2022-09-04T21:30:10.153Z,19.52
2022-09-04T21:36:26.921Z,18.60
2022-09-04T21:42:54.773Z,18.27
2022-09-04T21:49:09.533Z,17.30
2022-09-04T21:59:43.891Z,14.98
2022-09-04T22:02:40.143Z,13.82
2022-09-04T22:13:27.588Z,13.07
2022-09-04T22:14:54.692Z,13.75
2022-09-04T22:21:10.279Z,13.27
2022-09-04T22:27:25.454Z,14.25
2022-09-04T22:34:14.452Z,13.40
2022-09-04T22:40:12.720Z,13.80
2022-09-04T22:46:30.680Z,11.73
2022-09-04T22:52:39.314Z,9.60
2022-09-04T22:58:50.505Z,8.65
2022-09-04T23:05:04.252Z,8.27
2022-09-04T23:13:59.558Z,7.47
2022-09-04T23:18:12.854Z,6.80
2022-09-04T23:26:46.251Z,6.28
2022-09-04T23:30:50.404Z,5.82
2022-09-04T23:37:02.456Z,5.15
2022-09-04T23:43:20.769Z,5.32
2022-09-04T23:49:41.257Z,5.05
2022-09-04T23:55:58.422Z,5.30
